Time;durP1;ratioP1;P1;durP2;ratioP2;P2;SDS_P1;SDS_P2;PMS_P1;PMS_P2;Temp;Humidity;BMP_temperature;BMP_pressure;BME280_temperature;BME280_humidity;BME280_pressure;Samples;Min_cycle;Max_cycle;Signal;HPM_P1;HPM_P2
2023/06/17 00:01:17;;;;;;;8.60;7.90;;;;;;;21.56;96.33;98590.34;5035723;28;20224;-71
2023/06/17 00:03:44;;;;;;;8.43;7.60;;;;;;;21.59;96.00;98595.19;5035968;28;20208;-71
2023/06/17 00:06:11;;;;;;;9.47;8.63;;;;;;;21.67;95.90;98602.66;5035600;28;20201;-72
2023/06/17 00:08:39;;;;;;;8.77;7.97;;;;;;;21.67;95.17;98591.03;5035443;28;20190;-71
2023/06/17 00:11:06;;;;;;;8.23;7.63;;;;;;;21.55;95.29;98596.88;5035854;28;20205;-71
2023/06/17 00:13:33;;;;;;;7.97;7.37;;;;;;;21.62;95.08;98600.03;5035362;28;20657;-71
2023/06/17 00:16:00;;;;;;;8.80;7.83;;;;;;;21.71;95.10;98598.31;5035222;28;20554;-72
2023/06/17 00:18:28;;;;;;;7.47;6.90;;;;;;;21.78;94.52;98590.66;5035891;28;20243;-71
2023/06/17 00:20:57;;;;;;;8.63;7.93;;;;;;;21.60;95.15;98594.09;5035463;28;20283;-71
2023/06/17 00:23:25;;;;;;;9.43;8.60;;;;;;;21.58;95.17;98590.06;5035031;28;20200;-71
2023/06/17 00:25:53;;;;;;;8.90;8.27;;;;;;;21.36;95.82;98598.69;5035022;28;20291;-71
2023/06/17 00:28:20;;;;;;;8.60;7.90;;;;;;;21.40;96.61;98597.03;5035039;28;20658;-71
2023/06/17 00:30:47;;;;;;;8.77;8.07;;;;;;;21.31;97.00;98593.34;5035362;28;20197;-71
2023/06/17 00:33:14;;;;;;;8.40;7.60;;;;;;;21.48;96.82;98588.28;5034936;28;20202;-71
2023/06/17 00:35:41;;;;;;;9.23;7.80;;;;;;;21.58;96.15;98590.88;5035117;28;20381;-71
2023/06/17 00:38:08;;;;;;;8.33;7.53;;;;;;;21.67;95.86;98597.25;5034872;28;20194;-72
2023/06/17 00:40:34;;;;;;;8.03;7.43;;;;;;;21.77;95.57;98602.59;5035264;28;20283;-71
2023/06/17 00:43:02;;;;;;;10.03;8.20;;;;;;;21.69;95.27;98600.50;5034712;28;20197;-73
2023/06/17 00:45:29;;;;;;;8.33;7.40;;;;;;;21.61;95.35;98598.44;5035618;28;20189;-71
2023/06/17 00:47:59;;;;;;;8.63;8.03;;;;;;;21.70;95.19;98599.44;5035004;28;20201;-71
2023/06/17 00:50:28;;;;;;;9.20;8.33;;;;;;;21.66;94.93;98598.38;5034937;28;20197;-71
2023/06/17 00:52:55;;;;;;;8.77;8.03;;;;;;;21.74;94.81;98597.75;5034869;28;20205;-71
2023/06/17 00:55:23;;;;;;;8.80;8.03;;;;;;;21.32;96.28;98584.19;5034577;28;20240;-71
2023/06/17 00:57:50;;;;;;;9.37;8.57;;;;;;;21.28;97.34;98596.66;5034762;28;20284;-71
2023/06/17 01:00:19;;;;;;;11.33;8.10;;;;;;;21.18;97.98;98587.81;5033668;28;20206;-71
2023/06/17 01:02:46;;;;;;;8.27;7.77;;;;;;;21.31;97.66;98596.06;5034695;28;20251;-71
2023/06/17 01:05:16;;;;;;;8.27;7.77;;;;;;;21.40;97.14;98590.84;5034567;28;20251;-71
2023/06/17 01:07:52;;;;;;;8.10;7.50;;;;;;;21.52;96.56;98599.34;5034835;28;20225;-71
2023/06/17 01:10:25;;;;;;;8.50;7.57;;;;;;;21.58;95.83;98599.00;5034363;28;20769;-71
2023/06/17 01:12:55;;;;;;;10.30;8.20;;;;;;;21.59;95.36;98588.97;5034615;28;20192;-71
2023/06/17 01:15:24;;;;;;;9.23;8.50;;;;;;;21.39;96.66;98595.44;5034198;28;20193;-71
2023/06/17 01:17:54;;;;;;;8.97;8.20;;;;;;;21.50;96.47;98601.53;5034444;28;20201;-71
2023/06/17 01:20:22;;;;;;;9.30;8.50;;;;;;;21.59;95.72;98592.50;5034336;28;20201;-71
2023/06/17 01:22:52;;;;;;;8.80;8.10;;;;;;;21.61;95.52;98594.91;5034010;28;20194;-71
2023/06/17 01:25:29;;;;;;;9.80;8.83;;;;;;;21.52;95.84;98593.94;5034005;28;20687;-71
2023/06/17 01:27:59;;;;;;;9.73;8.83;;;;;;;21.56;95.64;98593.06;5034011;28;20618;-71
2023/06/17 01:30:28;;;;;;;9.70;8.93;;;;;;;21.28;96.69;98588.53;5034539;28;20193;-71
2023/06/17 01:32:55;;;;;;;9.57;8.87;;;;;;;21.33;96.54;98585.78;5033921;28;20561;-71
2023/06/17 01:35:23;;;;;;;9.57;8.87;;;;;;;21.29;95.40;98584.75;5034098;28;20239;-71
2023/06/17 01:37:59;;;;;;;9.17;8.47;;;;;;;21.30;95.97;98589.03;5034245;28;20204;-71
2023/06/17 01:40:29;;;;;;;10.10;9.10;;;;;;;21.34;95.09;98587.38;5033990;28;20290;-71
2023/06/17 01:42:59;;;;;;;11.40;8.77;;;;;;;21.25;95.32;98594.50;5034382;28;20189;-71
2023/06/17 01:45:26;;;;;;;9.30;8.57;;;;;;;21.24;96.13;98584.81;5034017;28;20197;-71
2023/06/17 01:47:53;;;;;;;8.50;7.77;;;;;;;21.36;95.55;98593.28;5033509;28;20198;-71
2023/06/17 01:50:20;;;;;;;9.23;8.33;;;;;;;21.36;95.16;98579.78;5033842;28;20193;-71
2023/06/17 01:52:47;;;;;;;8.63;7.90;;;;;;;21.48;94.98;98588.28;5033753;28;20198;-72
2023/06/17 01:55:14;;;;;;;9.30;8.60;;;;;;;21.53;94.57;98590.13;5033777;28;20201;-72
2023/06/17 01:57:42;;;;;;;8.80;7.93;;;;;;;21.57;94.01;98591.19;5033911;28;20284;-71
2023/06/17 02:00:12;;;;;;;9.17;8.37;;;;;;;21.29;94.37;98595.56;5033313;28;20625;-72
2023/06/17 02:02:39;;;;;;;9.83;8.60;;;;;;;21.18;95.52;98593.22;5033496;28;20228;-71
2023/06/17 02:05:07;;;;;;;8.93;8.00;;;;;;;21.31;95.51;98593.34;5033008;28;20673;-72
2023/06/17 02:07:34;;;;;;;9.53;8.83;;;;;;;21.41;95.09;98592.44;5033229;28;20196;-72
2023/06/17 02:10:01;;;;;;;8.60;7.80;;;;;;;21.51;94.52;98587.72;5033210;28;20201;-72
2023/06/17 02:12:27;;;;;;;9.10;8.50;;;;;;;21.53;93.45;98595.53;5032062;28;20209;-72
2023/06/17 02:14:56;;;;;;;8.23;7.50;;;;;;;21.56;93.67;98579.56;5033115;28;20194;-71
2023/06/17 02:17:23;;;;;;;9.33;8.43;;;;;;;21.59;93.10;98589.78;5033436;28;20223;-72
2023/06/17 02:19:50;;;;;;;8.70;7.90;;;;;;;21.60;93.31;98585.19;5033207;28;20275;-71
2023/06/17 02:22:16;;;;;;;12.50;7.73;;;;;;;21.58;92.85;98579.25;5032700;28;20697;-72
2023/06/17 02:24:43;;;;;;;11.27;9.33;;;;;;;21.47;93.24;98581.28;5033209;28;20271;-72
2023/06/17 02:27:10;;;;;;;8.00;7.50;;;;;;;21.48;93.39;98574.78;5032752;28;20681;-72
2023/06/17 02:29:37;;;;;;;10.23;8.80;;;;;;;21.58;93.48;98579.25;5032827;28;20628;-72
2023/06/17 02:32:12;;;;;;;8.43;7.97;;;;;;;21.64;93.28;98580.81;5130308;27;20561;-72
2023/06/17 02:34:42;;;;;;;9.47;8.53;;;;;;;21.44;93.38;98581.06;5130763;28;20258;-71
2023/06/17 02:37:09;;;;;;;9.20;8.23;;;;;;;21.54;93.19;98579.03;5130768;28;20194;-72
2023/06/17 02:39:35;;;;;;;8.83;8.17;;;;;;;21.62;92.93;98573.00;5130480;28;20251;-71
2023/06/17 02:42:03;;;;;;;8.80;7.90;;;;;;;21.70;92.52;98568.84;5130085;28;20666;-72
2023/06/17 02:44:30;;;;;;;11.97;8.37;;;;;;;21.72;92.03;98572.09;5130354;28;20273;-71
2023/06/17 02:46:56;;;;;;;9.23;8.37;;;;;;;21.68;92.62;98566.44;5130350;28;20191;-71
2023/06/17 02:49:24;;;;;;;9.87;8.27;;;;;;;21.73;92.92;98569.13;5129788;28;20194;-71
2023/06/17 02:51:51;;;;;;;9.90;8.73;;;;;;;21.76;92.58;98563.09;5130235;28;20217;-71
2023/06/17 02:54:18;;;;;;;9.20;8.30;;;;;;;21.83;92.39;98563.56;5129951;28;20281;-71
2023/06/17 02:56:44;;;;;;;9.13;8.27;;;;;;;21.86;92.40;98568.41;5130253;28;20194;-71
2023/06/17 02:59:12;;;;;;;9.10;8.30;;;;;;;21.81;91.98;98563.03;5129686;28;20190;-71
2023/06/17 03:01:42;;;;;;;9.03;8.23;;;;;;;21.82;92.23;98561.97;5130421;28;20220;-71
2023/06/17 03:04:09;;;;;;;9.53;8.93;;;;;;;21.85;91.87;98563.28;5129770;28;20193;-71
2023/06/17 03:06:37;;;;;;;10.30;8.90;;;;;;;21.70;92.22;98575.09;5129818;28;20273;-71
2023/06/17 03:09:04;;;;;;;9.63;8.63;;;;;;;21.75;92.34;98564.22;5129829;28;20198;-72
2023/06/17 03:11:31;;;;;;;8.77;7.97;;;;;;;21.78;92.30;98571.75;5129858;28;20222;-71
2023/06/17 03:13:57;;;;;;;11.13;8.60;;;;;;;21.67;91.65;98562.13;5129459;28;20243;-71
2023/06/17 03:16:24;;;;;;;9.50;8.60;;;;;;;21.79;91.69;98577.94;5129381;28;20615;-71
2023/06/17 03:18:51;;;;;;;10.60;8.47;;;;;;;21.80;91.72;98572.25;5129321;28;20190;-71
2023/06/17 03:21:18;;;;;;;9.63;8.87;;;;;;;21.80;91.75;98580.34;5129308;28;20733;-71
2023/06/17 03:23:48;;;;;;;10.53;8.87;;;;;;;21.77;91.86;98580.97;5129025;28;20661;-71
2023/06/17 03:26:15;;;;;;;11.13;10.07;;;;;;;21.80;92.27;98580.34;5129199;28;20685;-71
2023/06/17 03:28:42;;;;;;;11.40;10.23;;;;;;;21.49;92.86;98579.13;5129404;28;20229;-71
2023/06/17 03:31:10;;;;;;;11.60;10.37;;;;;;;21.53;93.05;98573.94;5129139;28;20233;-71
2023/06/17 03:33:37;;;;;;;11.47;10.30;;;;;;;21.54;93.16;98583.63;5129295;28;20194;-71
2023/06/17 03:36:04;;;;;;;11.30;10.17;;;;;;;21.56;93.57;98578.75;5128934;28;20649;-71
2023/06/17 03:38:31;;;;;;;12.50;11.40;;;;;;;21.54;93.40;98578.22;5129251;28;20198;-71
2023/06/17 03:40:59;;;;;;;12.90;11.80;;;;;;;21.59;93.88;98581.69;5129052;28;20190;-71
2023/06/17 03:43:25;;;;;;;12.00;10.93;;;;;;;21.49;93.76;98589.91;5116190;28;20195;-71
2023/06/17 03:45:52;;;;;;;14.13;12.70;;;;;;;21.47;93.76;98594.78;5115246;28;20198;-71
2023/06/17 03:48:19;;;;;;;12.30;11.30;;;;;;;21.56;93.79;98587.66;5115013;28;20198;-72
2023/06/17 03:50:46;;;;;;;13.40;12.00;;;;;;;21.59;93.25;98587.09;5115209;28;20222;-71
2023/06/17 03:53:12;;;;;;;12.67;11.27;;;;;;;21.68;93.33;98585.34;5114876;28;20199;-71
2023/06/17 03:55:39;;;;;;;12.00;10.37;;;;;;;21.73;92.77;98585.34;5114556;28;20395;-71
2023/06/17 03:58:07;;;;;;;10.87;9.90;;;;;;;21.77;92.72;98597.19;5115182;28;20190;-73
2023/06/17 04:00:34;;;;;;;11.30;10.40;;;;;;;21.87;92.40;98602.44;5115190;28;20198;-71
2023/06/17 04:03:01;;;;;;;12.03;10.40;;;;;;;21.86;91.74;98600.03;5114736;28;20244;-72
2023/06/17 04:05:33;;;;;;;11.17;10.27;;;;;;;21.89;92.09;98596.75;5114673;28;20739;-71
2023/06/17 04:08:02;;;;;;;11.67;9.67;;;;;;;22.00;92.04;98601.72;5115166;28;20354;-73
2023/06/17 04:10:29;;;;;;;11.80;10.60;;;;;;;22.09;91.51;98604.59;5114599;28;20191;-71
2023/06/17 04:12:56;;;;;;;14.57;11.27;;;;;;;22.11;90.65;98608.63;5114962;28;20191;-71
2023/06/17 04:15:24;;;;;;;12.73;11.03;;;;;;;22.12;90.86;98604.00;5114476;28;20226;-71
2023/06/17 04:17:50;;;;;;;14.93;10.83;;;;;;;22.15;90.54;98603.41;5114588;28;20199;-71
2023/06/17 04:20:17;;;;;;;12.70;11.43;;;;;;;22.19;90.42;98602.56;5114446;28;20195;-71
2023/06/17 04:22:44;;;;;;;12.77;11.57;;;;;;;22.22;90.50;98604.66;5114888;28;20194;-71
2023/06/17 04:25:12;;;;;;;16.50;11.57;;;;;;;22.24;90.41;98607.88;5114716;28;20190;-71
2023/06/17 04:27:39;;;;;;;11.70;10.70;;;;;;;22.23;89.84;98606.28;5114721;28;20202;-71
2023/06/17 04:30:08;;;;;;;13.00;11.63;;;;;;;22.05;90.21;98615.16;5114432;28;20227;-71
2023/06/17 04:32:38;;;;;;;12.70;11.70;;;;;;;22.10;91.10;98628.66;5114631;28;20207;-71
2023/06/17 04:35:06;;;;;;;12.70;11.60;;;;;;;22.09;90.64;98629.72;5114663;28;20281;-72
2023/06/17 04:37:34;;;;;;;13.87;12.60;;;;;;;21.94;91.35;98623.72;5114247;28;20202;-71
2023/06/17 04:40:11;;;;;;;12.73;11.53;;;;;;;21.96;92.30;98632.38;5114344;28;20203;-72
2023/06/17 04:42:40;;;;;;;15.20;13.27;;;;;;;22.04;92.14;98635.22;5098098;28;20221;-72
2023/06/17 04:45:09;;;;;;;13.17;12.17;;;;;;;22.02;91.65;98634.72;5113418;28;20198;-72
2023/06/17 04:47:37;;;;;;;14.30;13.07;;;;;;;21.81;92.35;98641.44;5114176;28;20574;-72
2023/06/17 04:50:04;;;;;;;13.33;11.87;;;;;;;21.83;93.00;98641.97;5113737;28;20205;-73
2023/06/17 04:52:32;;;;;;;13.17;11.93;;;;;;;21.94;92.39;98645.34;5114149;28;20222;-72
2023/06/17 04:54:59;;;;;;;13.20;12.13;;;;;;;22.04;92.51;98639.81;5113105;28;20226;-72
2023/06/17 04:57:26;;;;;;;14.93;13.20;;;;;;;22.04;92.62;98645.22;5114098;28;20238;-72
2023/06/17 04:59:53;;;;;;;15.07;13.63;;;;;;;21.87;92.83;98634.91;5113791;28;20191;-71
2023/06/17 05:02:19;;;;;;;15.90;14.33;;;;;;;21.96;93.61;98643.97;5113466;28;20735;-71
2023/06/17 05:04:47;;;;;;;15.13;13.67;;;;;;;21.94;93.63;98645.34;5113774;28;20183;-72
2023/06/17 05:07:14;;;;;;;15.63;14.17;;;;;;;21.90;93.93;98661.38;5113528;28;20719;-72
2023/06/17 05:09:41;;;;;;;13.97;12.60;;;;;;;21.98;94.95;98671.53;5113757;28;20629;-71
2023/06/17 05:12:07;;;;;;;15.20;13.80;;;;;;;22.06;94.29;98660.09;5113378;28;20226;-72
2023/06/17 05:14:34;;;;;;;14.53;13.20;;;;;;;22.03;94.41;98659.84;5112945;28;20627;-72
2023/06/17 05:17:01;;;;;;;15.47;13.73;;;;;;;22.19;94.61;98664.78;5112845;28;20198;-73
2023/06/17 05:19:27;;;;;;;18.40;14.43;;;;;;;22.26;94.30;98676.03;5112759;28;20243;-72
2023/06/17 05:21:56;;;;;;;16.00;14.50;;;;;;;22.31;93.80;98678.69;5112895;28;20634;-73
2023/06/17 05:24:22;;;;;;;16.03;14.53;;;;;;;22.37;93.82;98682.91;5112932;28;20597;-72
2023/06/17 05:26:49;;;;;;;16.53;14.87;;;;;;;22.39;94.06;98680.75;5112960;28;20730;-72
2023/06/17 05:29:16;;;;;;;15.57;13.97;;;;;;;22.46;94.17;98686.59;5113217;28;20190;-72
2023/06/17 05:31:42;;;;;;;15.63;14.10;;;;;;;22.48;93.93;98689.84;5113355;28;20230;-72
2023/06/17 05:34:09;;;;;;;16.10;14.70;;;;;;;22.50;94.33;98687.63;5112752;28;20191;-72
2023/06/17 05:36:36;;;;;;;16.63;14.93;;;;;;;22.57;94.40;98687.25;5112982;28;20190;-72
2023/06/17 05:39:04;;;;;;;16.23;14.67;;;;;;;22.62;93.67;98690.72;5112690;28;20735;-72
2023/06/17 05:41:30;;;;;;;16.33;14.93;;;;;;;22.66;93.17;98691.72;5112890;28;20198;-73
2023/06/17 05:43:57;;;;;;;16.83;15.23;;;;;;;22.67;93.03;98698.75;5112491;28;20731;-72
2023/06/17 05:46:24;;;;;;;17.87;15.57;;;;;;;22.73;92.60;98694.88;5112749;28;20275;-72
2023/06/17 05:48:51;;;;;;;16.67;15.03;;;;;;;22.74;92.68;98690.28;5112197;28;20202;-71
2023/06/17 05:51:17;;;;;;;16.53;15.23;;;;;;;22.78;92.25;98694.81;5112176;28;20691;-72
2023/06/17 05:53:44;;;;;;;16.03;14.60;;;;;;;22.82;92.87;98700.44;5112773;28;20256;-72
2023/06/17 05:56:12;;;;;;;15.63;14.23;;;;;;;22.86;93.14;98701.44;5112325;28;20191;-72
2023/06/17 05:58:39;;;;;;;18.80;16.17;;;;;;;22.90;93.73;98702.47;5112116;28;20194;-72
2023/06/17 06:01:05;;;;;;;16.80;15.20;;;;;;;22.91;93.17;98712.22;5112378;28;20567;-72
2023/06/17 06:03:32;;;;;;;15.23;13.90;;;;;;;22.93;92.83;98718.94;5112292;28;20191;-72
2023/06/17 06:05:59;;;;;;;18.40;14.80;;;;;;;22.95;92.53;98716.75;5111995;28;20194;-72
2023/06/17 06:08:26;;;;;;;17.83;15.23;;;;;;;22.99;91.78;98717.75;5112108;28;20662;-72
2023/06/17 06:10:53;;;;;;;15.80;14.40;;;;;;;23.03;91.81;98729.63;5112341;28;20256;-73
2023/06/17 06:13:21;;;;;;;18.87;16.67;;;;;;;23.07;91.35;98725.22;5112380;28;20216;-72
2023/06/17 06:15:48;;;;;;;16.77;14.97;;;;;;;22.91;91.98;98726.56;5112405;28;20249;-72
2023/06/17 06:18:15;;;;;;;20.13;18.13;;;;;;;22.99;93.33;98722.38;5112314;28;20200;-72
2023/06/17 06:20:41;;;;;;;17.50;15.83;;;;;;;23.10;92.82;98730.06;5112010;28;20195;-72
2023/06/17 06:23:09;;;;;;;18.67;16.70;;;;;;;23.09;91.67;98733.88;5112072;28;20665;-72
2023/06/17 06:25:35;;;;;;;14.77;13.67;;;;;;;23.14;93.74;98743.81;5112022;28;20249;-72
2023/06/17 06:28:02;;;;;;;13.90;12.60;;;;;;;23.13;92.42;98739.50;5111876;28;20197;-73
2023/06/17 06:30:30;;;;;;;14.80;13.37;;;;;;;23.22;89.70;98745.88;5111916;28;20226;-72
2023/06/17 06:32:57;;;;;;;16.53;12.87;;;;;;;23.28;89.33;98742.78;5111807;28;20214;-72
2023/06/17 06:35:24;;;;;;;14.90;13.40;;;;;;;23.36;89.30;98739.41;5111980;28;20625;-72
2023/06/17 06:37:51;;;;;;;14.80;13.50;;;;;;;23.38;87.56;98737.22;5112018;28;20572;-72
2023/06/17 06:40:18;;;;;;;14.77;13.23;;;;;;;23.34;87.10;98735.38;5112133;28;20265;-72
2023/06/17 06:42:44;;;;;;;13.77;12.40;;;;;;;23.36;87.96;98730.47;5112274;28;20389;-72
2023/06/17 06:45:11;;;;;;;14.37;13.27;;;;;;;23.34;89.82;98729.97;5112075;28;20196;-72
2023/06/17 06:47:39;;;;;;;13.30;12.10;;;;;;;23.34;91.73;98722.66;5111875;28;20192;-73
2023/06/17 06:50:07;;;;;;;13.10;12.03;;;;;;;23.34;92.19;98719.94;5111697;28;20240;-73
2023/06/17 06:52:33;;;;;;;13.17;11.80;;;;;;;23.32;92.13;98727.53;5111668;28;20228;-72
2023/06/17 06:55:00;;;;;;;11.77;10.87;;;;;;;23.25;89.87;98716.31;5111810;28;20192;-73
2023/06/17 06:57:27;;;;;;;12.17;11.00;;;;;;;23.17;88.73;98725.06;5111913;28;20195;-72
2023/06/17 06:59:53;;;;;;;11.50;10.60;;;;;;;23.17;90.23;98725.06;5111591;28;20192;-72
2023/06/17 07:02:20;;;;;;;12.80;11.40;;;;;;;23.14;90.15;98730.25;5111868;28;20584;-72
2023/06/17 07:04:48;;;;;;;11.23;10.23;;;;;;;23.12;89.88;98727.06;5111775;28;20188;-72
2023/06/17 07:07:15;;;;;;;10.93;10.20;;;;;;;23.17;89.92;98730.50;5111330;28;20681;-72
2023/06/17 07:09:42;;;;;;;13.40;11.17;;;;;;;23.18;91.35;98726.66;5112039;28;20187;-72
2023/06/17 07:12:11;;;;;;;14.73;12.50;;;;;;;23.17;91.04;98724.25;5111325;28;20220;-72
2023/06/17 07:14:38;;;;;;;13.70;12.40;;;;;;;23.12;91.56;98722.41;5111799;28;20668;-72
2023/06/17 07:17:04;;;;;;;17.30;13.63;;;;;;;23.04;90.63;98727.72;5111869;28;20192;-73
2023/06/17 07:19:31;;;;;;;17.77;15.27;;;;;;;22.84;93.95;98730.75;5115676;28;20191;-73
2023/06/17 07:21:59;;;;;;;16.33;14.60;;;;;;;22.71;94.97;98721.44;5115847;28;20202;-72
2023/06/17 07:24:26;;;;;;;17.43;15.97;;;;;;;22.64;94.91;98718.31;5115846;28;20303;-72
2023/06/17 07:26:52;;;;;;;17.90;16.10;;;;;;;22.62;95.41;98728.59;5115646;28;20236;-72
2023/06/17 07:29:20;;;;;;;19.07;17.30;;;;;;;22.55;95.45;98730.06;5115670;28;20614;-72
2023/06/17 07:31:47;;;;;;;20.47;18.30;;;;;;;22.51;96.86;98720.94;5115646;28;20322;-72
2023/06/17 07:34:13;;;;;;;20.43;18.63;;;;;;;22.40;98.36;98722.13;5115597;28;20251;-73
2023/06/17 07:36:40;;;;;;;23.03;20.87;;;;;;;22.33;99.77;98727.91;5115693;28;20187;-71
2023/06/17 07:39:08;;;;;;;21.30;19.10;;;;;;;22.18;99.25;98716.47;5115408;28;20203;-72
2023/06/17 07:41:35;;;;;;;21.83;19.70;;;;;;;22.11;99.58;98727.63;5115732;28;20210;-72
2023/06/17 07:44:01;;;;;;;19.93;17.90;;;;;;;22.05;100.00;98717.97;5115331;28;20186;-73
2023/06/17 07:46:28;;;;;;;18.30;16.80;;;;;;;22.26;100.00;98723.94;5115036;28;20654;-71
2023/06/17 07:48:55;;;;;;;17.03;15.63;;;;;;;22.37;98.25;98720.81;5115069;28;20222;-71
2023/06/17 07:51:21;;;;;;;16.00;14.53;;;;;;;22.42;95.38;98723.44;5114655;28;20195;-71
2023/06/17 07:53:48;;;;;;;16.63;14.90;;;;;;;22.41;93.24;98729.16;5115290;28;20191;-72
2023/06/17 07:56:19;;;;;;;19.03;17.07;;;;;;;22.35;94.27;98728.44;5114648;28;20259;-72
2023/06/17 07:58:46;;;;;;;19.70;17.77;;;;;;;22.34;94.51;98728.72;5115093;28;20235;-72
2023/06/17 08:01:13;;;;;;;23.07;19.30;;;;;;;22.35;95.12;98723.00;5114519;28;20255;-73
2023/06/17 08:03:40;;;;;;;19.33;17.33;;;;;;;22.54;96.57;98717.66;5114295;28;20194;-72
2023/06/17 08:06:08;;;;;;;20.73;18.63;;;;;;;22.57;96.67;98715.16;5114858;28;20199;-72
2023/06/17 08:08:34;;;;;;;19.67;17.67;;;;;;;22.51;95.41;98727.16;5114532;28;20196;-72
2023/06/17 08:11:01;;;;;;;20.30;17.70;;;;;;;22.70;95.88;98727.16;5114335;28;20670;-73
2023/06/17 08:13:29;;;;;;;20.63;18.47;;;;;;;22.85;95.41;98730.44;5114208;28;20215;-72
2023/06/17 08:15:56;;;;;;;19.10;15.70;;;;;;;22.86;91.41;98737.47;5114402;28;20658;-72
2023/06/17 08:18:22;;;;;;;17.00;15.13;;;;;;;22.96;91.95;98734.63;5114067;28;20202;-74
2023/06/17 08:20:49;;;;;;;20.40;16.70;;;;;;;23.06;91.75;98742.59;5114459;28;20656;-73
2023/06/17 08:23:16;;;;;;;16.93;13.93;;;;;;;23.01;89.79;98742.66;5114190;28;20256;-73
2023/06/17 08:25:43;;;;;;;14.80;13.40;;;;;;;23.02;88.42;98749.69;5114520;28;20195;-73
2023/06/17 08:28:09;;;;;;;14.10;12.70;;;;;;;22.88;88.12;98748.00;5114116;28;20194;-73
2023/06/17 08:30:37;;;;;;;15.77;13.50;;;;;;;22.99;89.47;98755.69;5113781;28;20703;-73
2023/06/17 08:33:04;;;;;;;17.43;14.10;;;;;;;23.18;90.60;98751.06;5113909;28;20694;-73
2023/06/17 08:35:31;;;;;;;17.17;13.87;;;;;;;23.20;89.02;98762.44;5114095;28;20241;-73
2023/06/17 08:37:58;;;;;;;15.70;14.30;;;;;;;23.16;88.76;98761.38;5114267;28;20195;-73
2023/06/17 08:40:27;;;;;;;15.10;13.23;;;;;;;23.31;89.86;98753.03;5113817;28;20192;-73
2023/06/17 08:43:00;;;;;;;15.57;13.60;;;;;;;23.49;90.82;98749.47;5113699;28;20203;-74
2023/06/17 08:45:27;;;;;;;13.40;12.37;;;;;;;23.60;89.96;98750.91;5114202;28;20206;-72
2023/06/17 08:47:56;;;;;;;13.87;12.87;;;;;;;23.49;88.84;98748.69;5112961;28;20246;-74
2023/06/17 08:50:23;;;;;;;13.47;12.37;;;;;;;23.59;89.16;98749.31;5113446;28;20204;-72
2023/06/17 08:52:50;;;;;;;15.23;13.73;;;;;;;23.63;89.75;98750.31;5113934;28;20268;-71
2023/06/17 08:55:17;;;;;;;15.00;12.97;;;;;;;23.62;88.72;98754.16;5114411;28;20197;-72
2023/06/17 08:57:45;;;;;;;16.13;14.77;;;;;;;23.61;88.64;98749.81;5114188;28;20241;-72
2023/06/17 09:00:13;;;;;;;16.40;15.00;;;;;;;23.63;89.18;98758.47;5114182;28;20273;-72
2023/06/17 09:02:44;;;;;;;15.33;13.97;;;;;;;23.62;90.63;98747.91;5113849;28;20196;-72
2023/06/17 09:05:12;;;;;;;16.77;15.23;;;;;;;23.63;88.81;98750.31;5113649;28;20215;-72
2023/06/17 09:07:39;;;;;;;16.97;15.27;;;;;;;23.53;89.01;98749.69;5113685;28;20192;-71
2023/06/17 09:10:08;;;;;;;14.07;12.87;;;;;;;23.26;85.49;98763.97;5113540;28;20199;-73
2023/06/17 09:12:39;;;;;;;14.40;13.20;;;;;;;23.19;87.08;98760.00;5113375;28;20224;-72
2023/06/17 09:15:08;;;;;;;15.77;14.37;;;;;;;23.15;87.74;98759.78;5113265;28;20240;-73
2023/06/17 09:17:38;;;;;;;16.47;14.97;;;;;;;23.11;88.19;98761.47;5113258;28;20227;-72
2023/06/17 09:20:14;;;;;;;16.17;14.60;;;;;;;23.14;89.81;98757.34;5112976;28;20191;-72
2023/06/17 09:22:42;;;;;;;15.60;14.17;;;;;;;23.25;90.01;98765.09;5113228;28;20204;-72
2023/06/17 09:25:11;;;;;;;17.90;14.10;;;;;;;23.11;89.05;98720.03;5113187;28;20679;-72
2023/06/17 09:27:44;;;;;;;14.73;13.23;;;;;;;23.47;88.99;98762.53;5112639;28;20586;-71
2023/06/17 09:30:13;;;;;;;13.50;12.20;;;;;;;23.61;87.20;98768.00;5112402;28;20258;-72
2023/06/17 09:32:42;;;;;;;13.10;12.10;;;;;;;23.51;84.68;98779.00;5112442;28;20203;-72
2023/06/17 09:35:15;;;;;;;13.90;12.60;;;;;;;23.49;86.30;98776.59;5112596;28;20222;-72
2023/06/17 09:37:48;;;;;;;13.57;12.33;;;;;;;23.56;87.09;98762.66;5113039;28;20184;-72
2023/06/17 09:40:16;;;;;;;18.27;16.57;;;;;;;23.65;87.59;98769.00;5112645;28;20239;-72
2023/06/17 09:42:44;;;;;;;19.33;17.33;;;;;;;23.53;87.83;98774.09;5112472;28;20655;-72
2023/06/17 09:45:13;;;;;;;17.53;15.83;;;;;;;23.61;87.87;98774.22;5112420;28;20632;-72
2023/06/17 09:47:40;;;;;;;17.40;15.90;;;;;;;23.68;85.87;98782.78;5112589;28;20193;-72
2023/06/17 09:50:10;;;;;;;19.77;16.23;;;;;;;23.64;86.17;98773.63;5112128;28;20617;-73
2023/06/17 09:52:39;;;;;;;16.57;15.07;;;;;;;23.86;86.99;98776.50;5112122;28;20222;-73
2023/06/17 09:55:07;;;;;;;18.43;16.73;;;;;;;23.82;86.42;98764.63;5112784;28;20212;-73
2023/06/17 09:57:36;;;;;;;16.03;14.63;;;;;;;23.84;83.95;98777.88;5112822;28;20191;-72
2023/06/17 10:00:09;;;;;;;18.10;16.23;;;;;;;23.87;84.68;98771.84;5112327;28;20278;-73
2023/06/17 10:02:36;;;;;;;22.07;19.73;;;;;;;23.81;84.46;98773.84;5112714;28;20180;-73
2023/06/17 10:05:04;;;;;;;20.17;18.37;;;;;;;23.78;86.08;98769.03;5112392;28;20267;-73
2023/06/17 10:07:32;;;;;;;18.37;16.20;;;;;;;23.94;86.10;98772.31;5112471;28;20228;-74
2023/06/17 10:10:00;;;;;;;14.93;13.60;;;;;;;23.85;83.21;98782.22;5112217;28;20261;-72
2023/06/17 10:12:30;;;;;;;16.57;15.13;;;;;;;23.83;82.63;98771.66;5111678;28;20280;-72
2023/06/17 10:14:58;;;;;;;13.37;12.03;;;;;;;23.83;80.28;98777.09;5112254;28;20249;-73
2023/06/17 10:17:27;;;;;;;13.07;11.90;;;;;;;23.78;80.33;98763.63;5112059;28;20656;-73
2023/06/17 10:19:54;;;;;;;14.93;13.77;;;;;;;23.79;82.44;98781.50;5111733;28;20194;-72
2023/06/17 10:22:22;;;;;;;15.17;13.80;;;;;;;23.85;82.87;98780.28;5112662;28;20196;-72
2023/06/17 10:24:50;;;;;;;15.87;13.97;;;;;;;23.72;81.60;98781.06;5112514;28;20202;-73
2023/06/17 10:27:19;;;;;;;18.30;14.93;;;;;;;23.54;84.80;98773.00;5111870;28;20627;-73
2023/06/17 10:29:49;;;;;;;17.13;14.20;;;;;;;23.54;84.66;98779.22;5111586;28;20262;-72
2023/06/17 10:32:20;;;;;;;15.67;14.17;;;;;;;23.69;84.77;98761.88;5112010;28;20237;-73
2023/06/17 10:35:09;;;;;;;17.33;12.67;;;;;;;24.02;84.03;98777.81;5111906;28;20201;-71
2023/06/17 10:37:41;;;;;;;14.13;12.70;;;;;;;24.16;83.08;98777.84;5111960;28;20660;-73
2023/06/17 10:40:19;;;;;;;13.73;12.20;;;;;;;24.34;83.17;98783.16;5112229;28;20186;-72
2023/06/17 10:42:57;;;;;;;13.10;12.13;;;;;;;24.29;80.81;98780.56;5112472;28;20189;-72
2023/06/17 10:45:23;;;;;;;12.03;10.67;;;;;;;24.31;80.85;98778.38;5112122;28;20184;-72
2023/06/17 10:47:50;;;;;;;11.93;11.00;;;;;;;24.55;80.65;98784.34;5112652;28;20202;-72
2023/06/17 10:50:21;;;;;;;12.17;10.00;;;;;;;24.69;81.70;98785.19;5112342;28;20286;-73
2023/06/17 10:52:55;;;;;;;11.43;10.40;;;;;;;24.83;81.36;98785.97;5114208;28;20225;-72
2023/06/17 10:55:22;;;;;;;10.57;9.83;;;;;;;24.87;82.83;98781.50;5115939;28;20186;-73
2023/06/17 10:57:48;;;;;;;10.83;9.93;;;;;;;24.92;82.55;98762.38;5116034;28;20255;-73
2023/06/17 11:00:17;;;;;;;11.07;9.80;;;;;;;24.88;81.73;98769.53;5115935;28;20191;-72
2023/06/17 11:02:44;;;;;;;11.00;10.10;;;;;;;24.79;83.17;98768.66;5116357;28;20255;-72
2023/06/17 11:05:11;;;;;;;9.77;8.87;;;;;;;24.60;82.62;98765.28;5115604;28;20186;-74
2023/06/17 11:07:37;;;;;;;9.47;8.77;;;;;;;24.53;83.58;98759.44;5116157;28;20198;-72
2023/06/17 11:10:05;;;;;;;8.80;8.23;;;;;;;24.59;83.66;98758.19;5115278;28;20656;-72
2023/06/17 11:12:34;;;;;;;8.20;7.60;;;;;;;24.66;80.34;98764.06;5115940;28;20288;-73
2023/06/17 11:15:03;;;;;;;7.13;6.67;;;;;;;24.66;80.67;98765.97;5115882;28;20240;-73
2023/06/17 11:17:31;;;;;;;6.47;5.83;;;;;;;24.69;79.56;98762.66;5116094;28;20230;-72
2023/06/17 11:19:57;;;;;;;6.70;6.30;;;;;;;24.36;78.04;98758.44;5115698;28;20275;-72
2023/06/17 11:22:24;;;;;;;10.17;9.10;;;;;;;24.46;78.57;98752.81;5115589;28;20197;-73
2023/06/17 11:24:51;;;;;;;7.57;7.17;;;;;;;24.56;80.83;98747.97;5115829;28;20266;-72